地図

経路データ

SID SEASON NUMBER BASIN SUBBASIN NAME ISO_TIME NATURE LAT LON WMO_WIND WMO_PRES WMO_AGENCY TRACK_TYPE DIST2LAND LANDFALL IFLAG USA_AGENCY USA_ATCF_ID USA_LAT USA_LON USA_RECORD USA_STATUS USA_WIND USA_PRES USA_SSHS USA_R34_NE USA_R34_SE USA_R34_SW USA_R34_NW USA_R50_NE USA_R50_SE USA_R50_SW USA_R50_NW USA_R64_NE USA_R64_SE USA_R64_SW USA_R64_NW USA_POCI USA_ROCI USA_RMW USA_EYE TOKYO_LAT TOKYO_LON TOKYO_GRADE TOKYO_WIND TOKYO_PRES TOKYO_R50_DIR TOKYO_R50_LONG TOKYO_R50_SHORT TOKYO_R30_DIR TOKYO_R30_LONG TOKYO_R30_SHORT TOKYO_LAND CMA_LAT CMA_LON CMA_CAT CMA_WIND CMA_PRES HKO_LAT HKO_LON HKO_CAT HKO_WIND HKO_PRES NEWDELHI_LAT NEWDELHI_LON NEWDELHI_GRADE NEWDELHI_WIND NEWDELHI_PRES NEWDELHI_CI NEWDELHI_DP NEWDELHI_POCI REUNION_LAT REUNION_LON REUNION_TYPE REUNION_WIND REUNION_PRES REUNION_TNUM REUNION_CI REUNION_RMW REUNION_R34_NE REUNION_R34_SE REUNION_R34_SW REUNION_R34_NW REUNION_R50_NE REUNION_R50_SE REUNION_R50_SW REUNION_R50_NW REUNION_R64_NE REUNION_R64_SE REUNION_R64_SW REUNION_R64_NW BOM_LAT BOM_LON BOM_TYPE BOM_WIND BOM_PRES BOM_TNUM BOM_CI BOM_RMW BOM_R34_NE BOM_R34_SE BOM_R34_SW BOM_R34_NW BOM_R50_NE BOM_R50_SE BOM_R50_SW BOM_R50_NW BOM_R64_NE BOM_R64_SE BOM_R64_SW BOM_R64_NW BOM_ROCI BOM_POCI BOM_EYE BOM_POS_METHOD BOM_PRES_METHOD NADI_LAT NADI_LON NADI_CAT NADI_WIND NADI_PRES WELLINGTON_LAT WELLINGTON_LON WELLINGTON_WIND WELLINGTON_PRES DS824_LAT DS824_LON DS824_STAGE DS824_WIND DS824_PRES TD9636_LAT TD9636_LON TD9636_STAGE TD9636_WIND TD9636_PRES TD9635_LAT TD9635_LON TD9635_WIND TD9635_PRES TD9635_ROCI NEUMANN_LAT NEUMANN_LON NEUMANN_CLASS NEUMANN_WIND NEUMANN_PRES MLC_LAT MLC_LON MLC_CLASS MLC_WIND MLC_PRES USA_GUST BOM_GUST BOM_GUST_PER REUNION_GUST REUNION_GUST_PER USA_SEAHGT USA_SEARAD_NE USA_SEARAD_SE USA_SEARAD_SW USA_SEARAD_NW STORM_SPEED STORM_DIR
1868161N30281 1868 9 NA NA NOT_NAMED 1868-06-08 12:00:00 SS 29.5000 -79.0000 main 183 183 _____________O -1 29.5000 -79.0000 SD 30 4 53
1868161N30281 1868 9 NA NA NOT_NAMED 1868-06-08 15:00:00 SS 29.6101 -78.8376 main 205 205 _____________P -1 29.6101 -78.8376 SD 30 3 53
1868161N30281 1868 9 NA NA NOT_NAMED 1868-06-08 18:00:00 SS 29.7000 -78.7000 main 220 220 _____________O -1 29.7000 -78.7000 SD 30 3 54
1868161N30281 1868 9 NA NA NOT_NAMED 1868-06-08 21:00:00 SS 29.7575 -78.5999 main 234 234 _____________P -1 29.7575 -78.5999 SD 32 2 60
1868161N30281 1868 9 NA NA NOT_NAMED 1868-06-09 00:00:00 SS 29.8000 -78.5000 main 242 242 _____________O -1 29.8000 -78.5000 SS 35 2 67
1868161N30281 1868 9 NA NA NOT_NAMED 1868-06-09 03:00:00 SS 29.8500 -78.3500 main 256 256 _____________P -1 29.8500 -78.3500 SS 35 3 69
1868161N30281 1868 9 NA NA NOT_NAMED 1868-06-09 06:00:00 SS 29.9000 -78.2000 main 272 272 _____________O -1 29.9000 -78.2000 SS 35 2 74
1868161N30281 1868 9 NA NA NOT_NAMED 1868-06-09 09:00:00 SS 29.9200 -78.0775 main 280 280 _____________P -1 29.9200 -78.0775 SS 35 2 60
1868161N30281 1868 9 NA NA NOT_NAMED 1868-06-09 12:00:00 SS 30.0000 -78.0000 main 294 294 _____________O -1 30.0000 -78.0000 SS 35 3 14
1868161N30281 1868 9 NA NA NOT_NAMED 1868-06-09 15:00:00 SS 30.2275 -77.9850 main 305 301 _____________P -1 30.2275 -77.9850 SS 35 5 2
1868161N30281 1868 9 NA NA NOT_NAMED 1868-06-09 18:00:00 SS 30.5000 -78.0000 main 301 283 _____________O -1 30.5000 -78.0000 SS 35 5 0
1868161N30281 1868 9 NA NA NOT_NAMED 1868-06-09 21:00:00 SS 30.7075 -78.0000 main 283 267 _____________P -1 30.7075 -78.0000 SS 37 4 0
1868161N30281 1868 9 NA NA NOT_NAMED 1868-06-10 00:00:00 SS 30.9000 -78.0000 main 267 249 _____________O -1 30.9000 -78.0000 SS 40 4 3
1868161N30281 1868 9 NA NA NOT_NAMED 1868-06-10 03:00:00 SS 31.0925 -78.0000 main 249 230 _____________P -1 31.0925 -78.0000 SS 40 4 0
1868161N30281 1868 9 NA NA NOT_NAMED 1868-06-10 06:00:00 SS 31.3000 -78.0000 main 230 207 _____________O -1 31.3000 -78.0000 SS 40 4 352
1868161N30281 1868 9 NA NA NOT_NAMED 1868-06-10 09:00:00 SS 31.5123 -78.0666 main 207 187 _____________P -1 31.5123 -78.0666 SS 40 5 2
1868161N30281 1868 9 NA NA NOT_NAMED 1868-06-10 12:00:00 SS 31.8000 -78.0000 main 187 179 _____________O -1 31.8000 -78.0000 SS 40 8 28
1868161N30281 1868 9 NA NA NOT_NAMED 1868-06-10 15:00:00 SS 32.2203 -77.6181 main 186 157 _____________P -1 32.2203 -77.6181 SS 40 12 40
1868161N30281 1868 9 NA NA NOT_NAMED 1868-06-10 18:00:00 SS 32.7000 -77.1000 main 157 149 _____________O -1 32.7000 -77.1000 SS 40 12 41
1868161N30281 1868 9 NA NA NOT_NAMED 1868-06-10 21:00:00 SS 33.1498 -76.6495 main 157 125 _____________P -1 33.1498 -76.6495 SS 42 12 40
1868161N30281 1868 9 NA NA NOT_NAMED 1868-06-11 00:00:00 SS 33.6000 -76.2000 main 125 100 _____________O -1 33.6000 -76.2000 SS 45 12 40
1868161N30281 1868 9 NA NA NOT_NAMED 1868-06-11 03:00:00 SS 34.0574 -75.7423 main 99 99 _____________P -1 34.0574 -75.7423 SS 45 12 40
1868161N30281 1868 9 NA NA NOT_NAMED 1868-06-11 06:00:00 SS 34.5000 -75.3000 main 101 100 _____________O -1 34.5000 -75.3000 SS 45 11 38
1868161N30281 1868 9 NA NA NOT_NAMED 1868-06-11 09:00:00 SS 34.9219 -74.9217 main 106 98 _____________P -1 34.9219 -74.9217 SS 45 10 39
1868161N30281 1868 9 NA NA NOT_NAMED 1868-06-11 12:00:00 SS 35.3000 -74.5000 main 106 106 _____________O -1 35.3000 -74.5000 SS 45 11 49
1868161N30281 1868 9 NA NA NOT_NAMED 1868-06-11 15:00:00 SS 35.6227 -73.9224 main 145 144 _____________P -1 35.6227 -73.9224 SS 45 11 58
1868161N30281 1868 9 NA NA NOT_NAMED 1868-06-11 18:00:00 ET 35.9000 -73.3000 main 198 198 _____________O -1 35.9000 -73.3000 EX 45 11 61
1868161N30281 1868 9 NA NA NOT_NAMED 1868-06-11 21:00:00 ET 36.1496 -72.7418 main 253 253 _____________P -1 36.1496 -72.7418 EX 45 10 61
1868161N30281 1868 9 NA NA NOT_NAMED 1868-06-12 00:00:00 ET 36.4000 -72.2000 main 303 303 _____________O -1 36.4000 -72.2000 EX 45 10 58
1868161N30281 1868 9 NA NA NOT_NAMED 1868-06-12 03:00:00 ET 36.6997 -71.6499 main 355 350 _____________P -1 36.6997 -71.6499 EX 45 11 56
1868161N30281 1868 9 NA NA NOT_NAMED 1868-06-12 06:00:00 ET 37.0000 -71.1000 main 379 379 _____________O -1 37.0000 -71.1000 EX 45 10 57
1868161N30281 1868 9 NA NA NOT_NAMED 1868-06-12 09:00:00 ET 37.2566 -70.5866 main 404 404 _____________P -1 37.2566 -70.5866 EX 45 10 60
1868161N30281 1868 9 NA NA NOT_NAMED 1868-06-12 12:00:00 ET 37.5000 -70.0000 main 429 429 _____________O -1 37.5000 -70.0000 EX 45 12 65
1868161N30281 1868 9 NA NA NOT_NAMED 1868-06-12 15:00:00 ET 37.7501 -69.2373 main 431 429 _____________P -1 37.7501 -69.2373 EX 45 14 68
1868161N30281 1868 9 NA NA NOT_NAMED 1868-06-12 18:00:00 ET 38.0000 -68.4000 main 433 428 _____________O -1 38.0000 -68.4000 EX 45 14 69
1868161N30281 1868 9 NA NA NOT_NAMED 1868-06-12 21:00:00 ET 38.2495 -67.5995 main 439 429 _____________P -1 38.2495 -67.5995 EX 45 14 68
1868161N30281 1868 9 NA NA NOT_NAMED 1868-06-13 00:00:00 ET 38.5000 -66.8000 main 447 447 _____________O -1 38.5000 -66.8000 EX 45 13 68
1868161N30281 1868 9 NA NA NOT_NAMED 1868-06-13 03:00:00 ET 38.7493 -66.0069 main 475 467 _____________P -1 38.7493 -66.0069 EX 45 13 68
1868161N30281 1868 9 NA NA NOT_NAMED 1868-06-13 06:00:00 ET 39.0000 -65.2000 main 500 480 _____________O -1 39.0000 -65.2000 EX 45 14 69
1868161N30281 1868 9 NA NA NOT_NAMED 1868-06-13 09:00:00 ET 39.2514 -64.3613 main 473 466 _____________P -1 39.2514 -64.3613 EX 42 14 69
1868161N30281 1868 9 NA NA NOT_NAMED 1868-06-13 12:00:00 ET 39.5000 -63.5000 main 469 _____________O -1 39.5000 -63.5000 EX 40 14 69

IBTrACS Databaseについて

本データベースは、米国NOAAが公開する1842年以降の世界の熱帯低気圧のベストトラックデータアーカイブInternational Best Track Archive for Climate Stewardship (IBTrACS)を、ウェブで閲覧しやすい形式に変換したものです。

最終更新日:2021-11-26